sensor_id;sensor_type;location;lat;lon;timestamp;pressure;altitude;pressure_sealevel;temperature;humidity
56912;BME280;42800;53.928;27.662;2023-09-18T00:01:36;99961.66;;;12.72;100.00
56912;BME280;42800;53.928;27.662;2023-09-18T00:04:05;99961.09;;;12.63;100.00
56912;BME280;42800;53.928;27.662;2023-09-18T00:06:31;99963.47;;;12.65;100.00
56912;BME280;42800;53.928;27.662;2023-09-18T00:08:56;99959.13;;;12.64;100.00
56912;BME280;42800;53.928;27.662;2023-09-18T00:11:23;99961.09;;;12.63;100.00
56912;BME280;42800;53.928;27.662;2023-09-18T00:13:49;99953.25;;;12.65;100.00
56912;BME280;42800;53.928;27.662;2023-09-18T00:16:15;99946.63;;;12.66;100.00
56912;BME280;42800;53.928;27.662;2023-09-18T00:18:41;99946.69;;;12.70;100.00
56912;BME280;42800;53.928;27.662;2023-09-18T00:21:07;99943.25;;;12.57;100.00
56912;BME280;42800;53.928;27.662;2023-09-18T00:23:35;99940.16;;;12.59;100.00
56912;BME280;42800;53.928;27.662;2023-09-18T00:26:01;99946.88;;;12.61;100.00
56912;BME280;42800;53.928;27.662;2023-09-18T00:28:28;99944.50;;;12.60;100.00
56912;BME280;42800;53.928;27.662;2023-09-18T00:30:54;99949.03;;;12.52;100.00
56912;BME280;42800;53.928;27.662;2023-09-18T00:33:20;99940.44;;;12.54;100.00
56912;BME280;42800;53.928;27.662;2023-09-18T00:35:46;99934.41;;;12.48;100.00
56912;BME280;42800;53.928;27.662;2023-09-18T00:38:12;99932.53;;;12.52;100.00
56912;BME280;42800;53.928;27.662;2023-09-18T00:40:38;99933.69;;;12.51;100.00
56912;BME280;42800;53.928;27.662;2023-09-18T00:43:04;99929.44;;;12.54;100.00
56912;BME280;42800;53.928;27.662;2023-09-18T00:45:31;99933.25;;;12.49;100.00
56912;BME280;42800;53.928;27.662;2023-09-18T00:47:57;99939.56;;;12.50;100.00
56912;BME280;42800;53.928;27.662;2023-09-18T00:50:23;99936.91;;;12.53;100.00
56912;BME280;42800;53.928;27.662;2023-09-18T00:52:50;99939.03;;;12.44;100.00
56912;BME280;42800;53.928;27.662;2023-09-18T00:55:16;99932.97;;;12.54;100.00
56912;BME280;42800;53.928;27.662;2023-09-18T00:57:42;99932.03;;;12.46;100.00
56912;BME280;42800;53.928;27.662;2023-09-18T01:00:09;99925.13;;;12.37;100.00
56912;BME280;42800;53.928;27.662;2023-09-18T01:02:36;99925.13;;;12.37;100.00
56912;BME280;42800;53.928;27.662;2023-09-18T01:05:02;99922.53;;;12.44;100.00
56912;BME280;42800;53.928;27.662;2023-09-18T01:07:28;99923.78;;;12.46;100.00
56912;BME280;42800;53.928;27.662;2023-09-18T01:09:54;99913.69;;;12.35;100.00
56912;BME280;42800;53.928;27.662;2023-09-18T01:12:25;99911.09;;;12.42;100.00
56912;BME280;42800;53.928;27.662;2023-09-18T01:14:58;99918.22;;;12.43;100.00
56912;BME280;42800;53.928;27.662;2023-09-18T01:17:28;99916.59;;;12.42;100.00
56912;BME280;42800;53.928;27.662;2023-09-18T01:19:56;99917.47;;;12.46;100.00
56912;BME280;42800;53.928;27.662;2023-09-18T01:22:22;99917.31;;;12.39;100.00
56912;BME280;42800;53.928;27.662;2023-09-18T01:24:48;99928.22;;;12.35;100.00
56912;BME280;42800;53.928;27.662;2023-09-18T01:27:17;99919.19;;;12.35;100.00
56912;BME280;42800;53.928;27.662;2023-09-18T01:29:43;99925.47;;;12.35;100.00
56912;BME280;42800;53.928;27.662;2023-09-18T01:32:09;99922.81;;;12.39;100.00
56912;BME280;42800;53.928;27.662;2023-09-18T01:34:37;99927.09;;;12.36;100.00
56912;BME280;42800;53.928;27.662;2023-09-18T01:37:05;99926.19;;;12.32;100.00
56912;BME280;42800;53.928;27.662;2023-09-18T01:39:33;99920.44;;;12.37;100.00
56912;BME280;42800;53.928;27.662;2023-09-18T01:42:02;99928.22;;;12.35;100.00
56912;BME280;42800;53.928;27.662;2023-09-18T01:44:28;99925.94;;;12.37;100.00
56912;BME280;42800;53.928;27.662;2023-09-18T01:46:56;99929.09;;;12.39;100.00
56912;BME280;42800;53.928;27.662;2023-09-18T01:49:27;99922.31;;;12.33;100.00
56912;BME280;42800;53.928;27.662;2023-09-18T01:51:53;99919.28;;;12.22;100.00
56912;BME280;42800;53.928;27.662;2023-09-18T01:54:19;99901.13;;;12.18;100.00
56912;BME280;42800;53.928;27.662;2023-09-18T01:56:45;99882.97;;;12.13;100.00
56912;BME280;42800;53.928;27.662;2023-09-18T01:59:12;99876.91;;;12.23;100.00
56912;BME280;42800;53.928;27.662;2023-09-18T02:01:38;99883.75;;;12.30;100.00
56912;BME280;42800;53.928;27.662;2023-09-18T02:04:04;99893.78;;;12.06;100.00
56912;BME280;42800;53.928;27.662;2023-09-18T02:06:30;99866.34;;;12.25;100.00
56912;BME280;42800;53.928;27.662;2023-09-18T02:08:56;99885.63;;;12.45;100.00
56912;BME280;42800;53.928;27.662;2023-09-18T02:11:22;99911.31;;;12.33;100.00
56912;BME280;42800;53.928;27.662;2023-09-18T02:13:48;99908.00;;;12.43;100.00
56912;BME280;42800;53.928;27.662;2023-09-18T02:16:15;99908.88;;;12.47;100.00
56912;BME280;42800;53.928;27.662;2023-09-18T02:18:40;99923.97;;;12.38;100.00
56912;BME280;42800;53.928;27.662;2023-09-18T02:21:06;99928.91;;;12.48;100.00
56912;BME280;42800;53.928;27.662;2023-09-18T02:23:32;99934.22;;;12.57;100.00
56912;BME280;42800;53.928;27.662;2023-09-18T02:25:58;99943.66;;;12.40;100.00
56912;BME280;42800;53.928;27.662;2023-09-18T02:28:24;99931.66;;;12.48;100.00
56912;BME280;42800;53.928;27.662;2023-09-18T02:30:51;99932.97;;;12.54;100.00
56912;BME280;42800;53.928;27.662;2023-09-18T02:33:17;99936.41;;;12.67;100.00
56912;BME280;42800;53.928;27.662;2023-09-18T02:35:43;99945.72;;;12.62;100.00
56912;BME280;42800;53.928;27.662;2023-09-18T02:38:09;99936.97;;;12.76;100.00
56912;BME280;42800;53.928;27.662;2023-09-18T02:40:35;99948.69;;;12.54;100.00
56912;BME280;42800;53.928;27.662;2023-09-18T02:43:01;99951.28;;;12.66;100.00
56912;BME280;42800;53.928;27.662;2023-09-18T02:45:27;99939.81;;;12.60;100.00
56912;BME280;42800;53.928;27.662;2023-09-18T02:47:53;99937.75;;;12.57;100.00
56912;BME280;42800;53.928;27.662;2023-09-18T02:50:20;99928.91;;;12.48;100.00
56912;BME280;42800;53.928;27.662;2023-09-18T02:52:46;99926.69;;;12.54;100.00
56912;BME280;42800;53.928;27.662;2023-09-18T02:55:11;99919.69;;;12.56;100.00
56912;BME280;42800;53.928;27.662;2023-09-18T02:57:38;99919.69;;;12.56;100.00
56912;BME280;42800;53.928;27.662;2023-09-18T03:00:06;99927.03;;;12.52;100.00
56912;BME280;42800;53.928;27.662;2023-09-18T03:02:32;99925.38;;;12.47;100.00
56912;BME280;42800;53.928;27.662;2023-09-18T03:04:58;99919.34;;;12.42;100.00
56912;BME280;42800;53.928;27.662;2023-09-18T03:07:24;99918.03;;;12.36;100.00
56912;BME280;42800;53.928;27.662;2023-09-18T03:09:54;99919.81;;;12.28;100.00
56912;BME280;42800;53.928;27.662;2023-09-18T03:12:20;99915.34;;;12.39;100.00
56912;BME280;42800;53.928;27.662;2023-09-18T03:14:47;99907.47;;;12.38;100.00
56912;BME280;42800;53.928;27.662;2023-09-18T03:17:13;99909.28;;;12.30;100.00
56912;BME280;42800;53.928;27.662;2023-09-18T03:19:39;99897.94;;;12.16;100.00
56912;BME280;42800;53.928;27.662;2023-09-18T03:22:05;99900.50;;;12.24;100.00
56912;BME280;42800;53.928;27.662;2023-09-18T03:24:32;99898.19;;;12.27;100.00
56912;BME280;42800;53.928;27.662;2023-09-18T03:26:58;99894.91;;;12.21;100.00
56912;BME280;42800;53.928;27.662;2023-09-18T03:29:24;99894.38;;;12.15;100.00
56912;BME280;42800;53.928;27.662;2023-09-18T03:31:50;99894.06;;;12.01;100.00
56912;BME280;42800;53.928;27.662;2023-09-18T03:34:15;99854.97;;;11.92;100.00
56912;BME280;42800;53.928;27.662;2023-09-18T03:36:41;99844.56;;;12.17;100.00
56912;BME280;42800;53.928;27.662;2023-09-18T03:39:07;99867.69;;;12.16;100.00
56912;BME280;42800;53.928;27.662;2023-09-18T03:41:35;99886.16;;;12.15;100.00
56912;BME280;42800;53.928;27.662;2023-09-18T03:44:01;99893.25;;;12.16;100.00
56912;BME280;42800;53.928;27.662;2023-09-18T03:46:27;99897.69;;;12.05;100.00
56912;BME280;42800;53.928;27.662;2023-09-18T03:48:53;99895.03;;;12.09;100.00
56912;BME280;42800;53.928;27.662;2023-09-18T03:51:20;99894.69;;;12.10;100.00
56912;BME280;42800;53.928;27.662;2023-09-18T03:53:46;99897.50;;;12.14;100.00
56912;BME280;42800;53.928;27.662;2023-09-18T03:56:13;99907.00;;;12.16;100.00
56912;BME280;42800;53.928;27.662;2023-09-18T03:58:40;99894.03;;;12.17;100.00
56912;BME280;42800;53.928;27.662;2023-09-18T04:01:05;99900.50;;;12.24;100.00
56912;BME280;42800;53.928;27.662;2023-09-18T04:03:31;99900.13;;;12.26;100.00
56912;BME280;42800;53.928;27.662;2023-09-18T04:05:57;99904.50;;;12.27;100.00
56912;BME280;42800;53.928;27.662;2023-09-18T04:08:23;99906.06;;;12.28;100.00
56912;BME280;42800;53.928;27.662;2023-09-18T04:10:49;99913.69;;;12.35;100.00
56912;BME280;42800;53.928;27.662;2023-09-18T04:13:15;99928.06;;;12.28;100.00
56912;BME280;42800;53.928;27.662;2023-09-18T04:15:41;99921.59;;;12.36;100.00
56912;BME280;42800;53.928;27.662;2023-09-18T04:18:07;99926.34;;;12.39;100.00
56912;BME280;42800;53.928;27.662;2023-09-18T04:20:33;99922.25;;;12.49;100.00
56912;BME280;42800;53.928;27.662;2023-09-18T04:23:21;99934.94;;;12.54;100.00
56912;BME280;42800;53.928;27.662;2023-09-18T04:25:47;99933.38;;;12.37;100.00
56912;BME280;42800;53.928;27.662;2023-09-18T04:28:13;99921.56;;;12.71;100.00
56912;BME280;42800;53.928;27.662;2023-09-18T04:30:39;99943.59;;;12.91;100.00
56912;BME280;42800;53.928;27.662;2023-09-18T04:33:06;99965.44;;;13.23;100.00
56912;BME280;42800;53.928;27.662;2023-09-18T04:35:32;100000.09;;;13.62;100.00
56912;BME280;42800;53.928;27.662;2023-09-18T04:37:59;100012.63;;;14.02;100.00
56912;BME280;42800;53.928;27.662;2023-09-18T04:40:25;99999.19;;;14.47;100.00
56912;BME280;42800;53.928;27.662;2023-09-18T04:42:52;99908.50;;;15.05;100.00
56912;BME280;42800;53.928;27.662;2023-09-18T04:45:18;99733.34;;;15.54;100.00
56912;BME280;42800;53.928;27.662;2023-09-18T04:47:44;99524.25;;;15.80;100.00
56912;BME280;42800;53.928;27.662;2023-09-18T04:50:10;99265.94;;;16.06;100.00
56912;BME280;42800;53.928;27.662;2023-09-18T04:52:37;99058.97;;;16.57;100.00
56912;BME280;42800;53.928;27.662;2023-09-18T04:55:03;98867.13;;;17.01;100.00
56912;BME280;42800;53.928;27.662;2023-09-18T04:57:31;98709.47;;;17.14;100.00
56912;BME280;42800;53.928;27.662;2023-09-18T04:59:57;98640.78;;;17.49;100.00
56912;BME280;42800;53.928;27.662;2023-09-18T05:02:23;98616.50;;;17.80;100.00
56912;BME280;42800;53.928;27.662;2023-09-18T05:04:50;98598.19;;;18.02;100.00
56912;BME280;42800;53.928;27.662;2023-09-18T05:07:17;98583.56;;;18.18;100.00
56912;BME280;42800;53.928;27.662;2023-09-18T05:09:43;98594.84;;;18.64;100.00
56912;BME280;42800;53.928;27.662;2023-09-18T05:12:09;98591.53;;;19.01;100.00
56912;BME280;42800;53.928;27.662;2023-09-18T05:14:41;98611.75;;;19.18;100.00
56912;BME280;42800;53.928;27.662;2023-09-18T05:17:10;98608.03;;;18.92;100.00
56912;BME280;42800;53.928;27.662;2023-09-18T05:19:36;98582.84;;;18.50;100.00
56912;BME280;42800;53.928;27.662;2023-09-18T05:22:02;98574.22;;;18.28;100.00
56912;BME280;42800;53.928;27.662;2023-09-18T05:24:29;98596.63;;;18.01;100.00
56912;BME280;42800;53.928;27.662;2023-09-18T05:26:55;98634.09;;;17.70;100.00
56912;BME280;42800;53.928;27.662;2023-09-18T05:29:20;98631.13;;;17.80;100.00
56912;BME280;42800;53.928;27.662;2023-09-18T05:31:46;98664.28;;;17.64;100.00
56912;BME280;42800;53.928;27.662;2023-09-18T05:34:12;98710.63;;;17.40;100.00
56912;BME280;42800;53.928;27.662;2023-09-18T05:36:38;98763.09;;;17.74;100.00
56912;BME280;42800;53.928;27.662;2023-09-18T05:39:06;98652.53;;;17.80;100.00
56912;BME280;42800;53.928;27.662;2023-09-18T05:41:35;98621.34;;;18.12;100.00
56912;BME280;42800;53.928;27.662;2023-09-18T05:44:01;98572.75;;;18.76;100.00
56912;BME280;42800;53.928;27.662;2023-09-18T05:46:30;98561.78;;;19.31;100.00
56912;BME280;42800;53.928;27.662;2023-09-18T05:48:56;98644.72;;;20.07;100.00
56912;BME280;42800;53.928;27.662;2023-09-18T05:51:23;98764.56;;;20.71;100.00
56912;BME280;42800;53.928;27.662;2023-09-18T05:53:49;98831.81;;;20.99;100.00
56912;BME280;42800;53.928;27.662;2023-09-18T05:56:15;98873.91;;;21.30;100.00
56912;BME280;42800;53.928;27.662;2023-09-18T05:58:43;98924.75;;;21.34;100.00
56912;BME280;42800;53.928;27.662;2023-09-18T06:01:09;98914.78;;;21.75;100.00
56912;BME280;42800;53.928;27.662;2023-09-18T06:03:35;98978.06;;;21.78;100.00
56912;BME280;42800;53.928;27.662;2023-09-18T06:06:01;98963.41;;;22.12;100.00
56912;BME280;42800;53.928;27.662;2023-09-18T06:08:27;99020.94;;;22.48;100.00
56912;BME280;42800;53.928;27.662;2023-09-18T06:10:54;99064.69;;;22.76;100.00
56912;BME280;42800;53.928;27.662;2023-09-18T06:13:20;99079.03;;;23.26;100.00
56912;BME280;42800;53.928;27.662;2023-09-18T06:15:47;99107.75;;;23.27;100.00
56912;BME280;42800;53.928;27.662;2023-09-18T06:18:13;99081.59;;;23.20;100.00
56912;BME280;42800;53.928;27.662;2023-09-18T06:20:39;99100.28;;;23.80;100.00
56912;BME280;42800;53.928;27.662;2023-09-18T06:23:06;99116.13;;;24.05;100.00
56912;BME280;42800;53.928;27.662;2023-09-18T06:25:32;99110.25;;;24.12;100.00
56912;BME280;42800;53.928;27.662;2023-09-18T06:27:58;99129.00;;;24.25;100.00
56912;BME280;42800;53.928;27.662;2023-09-18T06:30:25;99124.34;;;23.78;100.00
56912;BME280;42800;53.928;27.662;2023-09-18T06:32:53;99146.28;;;24.54;100.00
56912;BME280;42800;53.928;27.662;2023-09-18T06:35:19;99161.16;;;25.14;100.00
56912;BME280;42800;53.928;27.662;2023-09-18T06:37:45;99153.22;;;25.30;100.00
56912;BME280;42800;53.928;27.662;2023-09-18T06:40:11;99166.03;;;25.50;100.00
56912;BME280;42800;53.928;27.662;2023-09-18T06:42:37;99192.72;;;25.82;100.00
56912;BME280;42800;53.928;27.662;2023-09-18T06:45:03;99185.88;;;25.83;100.00
56912;BME280;42800;53.928;27.662;2023-09-18T06:47:32;99209.53;;;26.37;100.00
56912;BME280;42800;53.928;27.662;2023-09-18T06:49:58;99215.09;;;26.65;100.00
56912;BME280;42800;53.928;27.662;2023-09-18T06:52:25;99230.66;;;26.75;100.00
56912;BME280;42800;53.928;27.662;2023-09-18T06:54:52;99229.84;;;26.14;100.00
56912;BME280;42800;53.928;27.662;2023-09-18T06:57:18;99244.00;;;26.98;100.00
56912;BME280;42800;53.928;27.662;2023-09-18T06:59:45;99250.03;;;27.25;100.00
56912;BME280;42800;53.928;27.662;2023-09-18T07:02:12;99233.97;;;26.73;100.00
56912;BME280;42800;53.928;27.662;2023-09-18T07:04:40;99237.41;;;26.68;100.00
56912;BME280;42800;53.928;27.662;2023-09-18T07:07:10;99227.69;;;27.21;100.00
56912;BME280;42800;53.928;27.662;2023-09-18T07:09:37;99243.38;;;26.61;100.00
56912;BME280;42800;53.928;27.662;2023-09-18T07:12:04;99234.38;;;26.02;100.00
56912;BME280;42800;53.928;27.662;2023-09-18T07:14:30;99246.75;;;26.84;100.00
56912;BME280;42800;53.928;27.662;2023-09-18T07:16:56;99237.94;;;26.39;100.00
56912;BME280;42800;53.928;27.662;2023-09-18T07:19:22;99231.44;;;25.96;100.00
56912;BME280;42800;53.928;27.662;2023-09-18T07:21:48;99239.53;;;25.85;100.00
56912;BME280;42800;53.928;27.662;2023-09-18T07:24:15;99245.44;;;26.94;100.00
56912;BME280;42800;53.928;27.662;2023-09-18T07:26:45;99254.13;;;27.48;100.00
56912;BME280;42800;53.928;27.662;2023-09-18T07:29:12;99253.66;;;27.73;100.00
56912;BME280;42800;53.928;27.662;2023-09-18T07:31:38;99261.09;;;27.28;100.00
56912;BME280;42800;53.928;27.662;2023-09-18T07:34:05;99263.88;;;27.85;100.00
56912;BME280;42800;53.928;27.662;2023-09-18T07:36:31;99256.63;;;26.70;100.00
56912;BME280;42800;53.928;27.662;2023-09-18T07:38:57;99244.28;;;27.10;100.00
56912;BME280;42800;53.928;27.662;2023-09-18T07:41:24;99214.41;;;26.00;100.00
56912;BME280;42800;53.928;27.662;2023-09-18T07:43:50;99210.66;;;25.94;100.00
56912;BME280;42800;53.928;27.662;2023-09-18T07:46:16;99189.84;;;25.27;100.00
56912;BME280;42800;53.928;27.662;2023-09-18T07:48:42;99140.91;;;24.78;100.00
56912;BME280;42800;53.928;27.662;2023-09-18T07:51:10;99133.19;;;25.01;100.00
56912;BME280;42800;53.928;27.662;2023-09-18T07:53:36;99104.88;;;24.27;100.00
56912;BME280;42800;53.928;27.662;2023-09-18T07:56:03;99113.94;;;24.72;100.00
56912;BME280;42800;53.928;27.662;2023-09-18T07:58:31;99123.53;;;24.93;100.00
56912;BME280;42800;53.928;27.662;2023-09-18T08:00:58;99134.19;;;25.34;100.00
56912;BME280;42800;53.928;27.662;2023-09-18T08:03:26;99113.00;;;25.79;100.00
56912;BME280;42800;53.928;27.662;2023-09-18T08:05:52;99161.97;;;25.60;100.00
56912;BME280;42800;53.928;27.662;2023-09-18T08:08:19;99186.56;;;26.48;100.00
56912;BME280;42800;53.928;27.662;2023-09-18T08:10:46;99166.31;;;25.33;100.00
56912;BME280;42800;53.928;27.662;2023-09-18T08:13:12;99184.72;;;25.62;100.00
56912;BME280;42800;53.928;27.662;2023-09-18T08:15:39;99142.88;;;25.00;100.00
56912;BME280;42800;53.928;27.662;2023-09-18T08:18:05;99177.44;;;26.62;100.00
56912;BME280;42800;53.928;27.662;2023-09-18T08:20:31;99211.66;;;27.36;100.00
56912;BME280;42800;53.928;27.662;2023-09-18T08:22:58;99222.19;;;27.51;100.00
56912;BME280;42800;53.928;27.662;2023-09-18T08:25:26;99223.75;;;28.29;100.00
56912;BME280;42800;53.928;27.662;2023-09-18T08:27:52;99220.06;;;28.38;100.00
56912;BME280;42800;53.928;27.662;2023-09-18T08:30:18;99223.66;;;28.24;100.00
56912;BME280;42800;53.928;27.662;2023-09-18T08:32:47;99233.28;;;28.91;100.00
56912;BME280;42800;53.928;27.662;2023-09-18T08:35:13;99231.28;;;28.47;100.00
56912;BME280;42800;53.928;27.662;2023-09-18T08:37:40;99228.56;;;28.53;100.00
56912;BME280;42800;53.928;27.662;2023-09-18T08:40:07;99231.47;;;28.58;100.00
56912;BME280;42800;53.928;27.662;2023-09-18T08:42:36;99220.72;;;28.18;100.00
56912;BME280;42800;53.928;27.662;2023-09-18T08:45:06;99231.94;;;28.72;100.00
56912;BME280;42800;53.928;27.662;2023-09-18T08:47:33;99237.03;;;27.75;100.00
56912;BME280;42800;53.928;27.662;2023-09-18T08:50:00;99230.41;;;28.41;100.00
56912;BME280;42800;53.928;27.662;2023-09-18T08:52:27;99240.88;;;28.55;100.00
56912;BME280;42800;53.928;27.662;2023-09-18T08:54:54;99231.72;;;28.90;100.00
56912;BME280;42800;53.928;27.662;2023-09-18T08:57:21;99228.41;;;28.03;100.00
56912;BME280;42800;53.928;27.662;2023-09-18T08:59:48;99204.72;;;27.23;100.00
56912;BME280;42800;53.928;27.662;2023-09-18T09:02:14;99183.25;;;26.92;100.00
56912;BME280;42800;53.928;27.662;2023-09-18T09:04:40;99176.97;;;27.30;100.00
56912;BME280;42800;53.928;27.662;2023-09-18T09:07:07;99175.25;;;25.87;100.00
56912;BME280;42800;53.928;27.662;2023-09-18T09:09:34;99157.75;;;25.92;100.00
56912;BME280;42800;53.928;27.662;2023-09-18T09:12:01;99161.63;;;26.74;100.00
56912;BME280;42800;53.928;27.662;2023-09-18T09:14:27;99190.56;;;27.56;100.00
56912;BME280;42800;53.928;27.662;2023-09-18T09:16:55;99184.97;;;26.56;100.00
56912;BME280;42800;53.928;27.662;2023-09-18T09:19:29;99164.75;;;26.76;100.00
56912;BME280;42800;53.928;27.662;2023-09-18T09:21:56;99192.72;;;28.00;100.00
56912;BME280;42800;53.928;27.662;2023-09-18T09:24:37;99184.19;;;28.24;100.00
56912;BME280;42800;53.928;27.662;2023-09-18T09:27:03;99165.53;;;27.34;100.00
56912;BME280;42800;53.928;27.662;2023-09-18T09:29:29;99198.31;;;27.85;100.00
56912;BME280;42800;53.928;27.662;2023-09-18T09:31:56;99176.81;;;27.01;100.00
56912;BME280;42800;53.928;27.662;2023-09-18T09:34:37;99169.63;;;26.66;100.00
56912;BME280;42800;53.928;27.662;2023-09-18T09:37:03;99183.06;;;27.29;100.00
56912;BME280;42800;53.928;27.662;2023-09-18T09:39:29;99194.19;;;28.10;100.00
56912;BME280;42800;53.928;27.662;2023-09-18T09:41:59;99190.66;;;27.61;100.00
56912;BME280;42800;53.928;27.662;2023-09-18T09:44:26;99192.97;;;28.41;100.00
56912;BME280;42800;53.928;27.662;2023-09-18T09:46:54;99210.06;;;27.35;100.00
56912;BME280;42800;53.928;27.662;2023-09-18T09:49:20;99190.00;;;26.85;100.00
56912;BME280;42800;53.928;27.662;2023-09-18T09:51:47;99190.75;;;26.95;100.00
56912;BME280;42800;53.928;27.662;2023-09-18T09:54:13;99187.81;;;27.47;100.00
56912;BME280;42800;53.928;27.662;2023-09-18T09:56:44;99206.25;;;28.25;100.00
56912;BME280;42800;53.928;27.662;2023-09-18T09:59:12;99200.13;;;27.73;100.00
56912;BME280;42800;53.928;27.662;2023-09-18T10:01:38;99179.03;;;27.30;100.00
56912;BME280;42800;53.928;27.662;2023-09-18T10:04:09;99176.41;;;26.32;100.00
56912;BME280;42800;53.928;27.662;2023-09-18T10:06:36;99170.22;;;25.27;100.00
56912;BME280;42800;53.928;27.662;2023-09-18T10:09:04;99111.50;;;24.92;100.00
56912;BME280;42800;53.928;27.662;2023-09-18T10:11:33;99109.53;;;25.11;100.00
56912;BME280;42800;53.928;27.662;2023-09-18T10:14:06;99137.16;;;25.58;100.00
56912;BME280;42800;53.928;27.662;2023-09-18T10:16:34;99129.22;;;25.29;100.00
56912;BME280;42800;53.928;27.662;2023-09-18T10:19:06;99133.72;;;25.18;100.00
56912;BME280;42800;53.928;27.662;2023-09-18T10:21:41;99132.03;;;25.57;100.00
56912;BME280;42800;53.928;27.662;2023-09-18T10:24:14;99114.09;;;25.18;100.00
56912;BME280;42800;53.928;27.662;2023-09-18T10:26:48;99124.84;;;25.28;100.00
56912;BME280;42800;53.928;27.662;2023-09-18T10:29:18;99134.53;;;25.64;100.00
56912;BME280;42800;53.928;27.662;2023-09-18T10:31:46;99156.56;;;26.54;100.00
56912;BME280;42800;53.928;27.662;2023-09-18T10:34:13;99157.91;;;25.89;100.00
56912;BME280;42800;53.928;27.662;2023-09-18T10:36:41;99144.97;;;26.00;100.00
56912;BME280;42800;53.928;27.662;2023-09-18T10:42:14;99134.84;;;25.94;100.00
56912;BME280;42800;53.928;27.662;2023-09-18T10:44:42;99133.44;;;25.89;100.00
56912;BME280;42800;53.928;27.662;2023-09-18T10:47:10;99154.00;;;26.98;100.00
56912;BME280;42800;53.928;27.662;2023-09-18T10:49:37;99176.88;;;27.63;100.00
56912;BME280;42800;53.928;27.662;2023-09-18T10:52:04;99170.88;;;27.71;100.00
56912;BME280;42800;53.928;27.662;2023-09-18T10:54:31;99158.09;;;27.45;100.00
56912;BME280;42800;53.928;27.662;2023-09-18T10:56:57;99168.13;;;26.56;100.00
56912;BME280;42800;53.928;27.662;2023-09-18T10:59:23;99107.72;;;25.63;100.00
56912;BME280;42800;53.928;27.662;2023-09-18T11:01:50;99081.50;;;25.66;100.00
56912;BME280;42800;53.928;27.662;2023-09-18T11:04:19;99103.44;;;26.14;100.00
56912;BME280;42800;53.928;27.662;2023-09-18T11:07:01;99091.34;;;26.22;100.00
56912;BME280;42800;53.928;27.662;2023-09-18T11:09:31;99066.38;;;25.45;100.00
56912;BME280;42800;53.928;27.662;2023-09-18T11:12:03;99049.38;;;25.49;100.00
56912;BME280;42800;53.928;27.662;2023-09-18T11:14:41;99010.56;;;25.01;100.00
56912;BME280;42800;53.928;27.662;2023-09-18T11:17:28;98976.63;;;24.62;100.00
56912;BME280;42800;53.928;27.662;2023-09-18T11:20:05;99004.84;;;25.32;100.00
56912;BME280;42800;53.928;27.662;2023-09-18T11:22:34;98968.06;;;25.12;100.00
56912;BME280;42800;53.928;27.662;2023-09-18T11:25:29;98941.38;;;24.52;100.00
56912;BME280;42800;53.928;27.662;2023-09-18T11:27:55;98918.97;;;24.43;100.00
56912;BME280;42800;53.928;27.662;2023-09-18T11:30:21;98968.03;;;24.84;100.00
56912;BME280;42800;53.928;27.662;2023-09-18T11:32:49;98944.69;;;24.01;100.00
56912;BME280;42800;53.928;27.662;2023-09-18T11:35:15;98875.22;;;23.68;100.00
56912;BME280;42800;53.928;27.662;2023-09-18T11:37:43;98868.19;;;24.13;100.00
56912;BME280;42800;53.928;27.662;2023-09-18T11:40:28;98886.59;;;24.60;100.00
56912;BME280;42800;53.928;27.662;2023-09-18T11:43:20;98846.81;;;23.88;100.00
56912;BME280;42800;53.928;27.662;2023-09-18T11:45:49;98747.06;;;23.54;100.00
56912;BME280;42800;53.928;27.662;2023-09-18T11:48:17;98779.47;;;23.92;100.00
56912;BME280;42800;53.928;27.662;2023-09-18T11:50:44;98771.56;;;23.90;100.00
56912;BME280;42800;53.928;27.662;2023-09-18T11:53:11;98799.88;;;24.11;100.00
56912;BME280;42800;53.928;27.662;2023-09-18T11:55:39;98770.75;;;23.81;100.00
56912;BME280;42800;53.928;27.662;2023-09-18T11:58:05;98797.25;;;24.16;100.00
56912;BME280;42800;53.928;27.662;2023-09-18T12:00:33;98804.56;;;24.51;100.00
56912;BME280;42800;53.928;27.662;2023-09-18T12:03:13;98755.22;;;23.80;100.00
56912;BME280;42800;53.928;27.662;2023-09-18T12:05:41;98711.69;;;23.69;100.00
56912;BME280;42800;53.928;27.662;2023-09-18T12:08:09;98731.72;;;24.05;100.00
56912;BME280;42800;53.928;27.662;2023-09-18T12:10:37;98709.97;;;23.90;100.00
56912;BME280;42800;53.928;27.662;2023-09-18T12:13:05;98715.38;;;24.12;100.00
56912;BME280;42800;53.928;27.662;2023-09-18T12:15:33;98713.53;;;24.09;100.00
56912;BME280;42800;53.928;27.662;2023-09-18T12:18:05;98611.19;;;23.35;100.00
56912;BME280;42800;53.928;27.662;2023-09-18T12:20:31;98634.38;;;23.54;100.00
56912;BME280;42800;53.928;27.662;2023-09-18T12:22:59;98608.56;;;23.31;100.00
56912;BME280;42800;53.928;27.662;2023-09-18T12:25:26;98562.72;;;23.38;100.00
56912;BME280;42800;53.928;27.662;2023-09-18T12:27:52;98579.34;;;23.51;100.00
56912;BME280;42800;53.928;27.662;2023-09-18T12:30:19;98559.47;;;23.30;100.00
56912;BME280;42800;53.928;27.662;2023-09-18T12:32:46;98521.38;;;23.05;100.00
56912;BME280;42800;53.928;27.662;2023-09-18T12:35:13;98533.31;;;23.61;100.00
56912;BME280;42800;53.928;27.662;2023-09-18T12:37:40;98578.41;;;23.90;100.00
56912;BME280;42800;53.928;27.662;2023-09-18T12:40:07;98536.75;;;23.56;100.00
56912;BME280;42800;53.928;27.662;2023-09-18T12:42:46;98494.81;;;23.19;100.00
56912;BME280;42800;53.928;27.662;2023-09-18T12:45:13;98473.25;;;23.01;100.00